sensor_id;sensor_type;location;lat;lon;timestamp;P1;durP1;ratioP1;P2;durP2;ratioP2
23496;SDS011;11925;48.122;11.560;2022-11-20T00:02:10;2.35;;;1.60;;
23496;SDS011;11925;48.122;11.560;2022-11-20T00:04:39;2.85;;;1.77;;
23496;SDS011;11925;48.122;11.560;2022-11-20T00:07:08;3.28;;;1.70;;
23496;SDS011;11925;48.122;11.560;2022-11-20T00:09:38;3.40;;;1.55;;
23496;SDS011;11925;48.122;11.560;2022-11-20T00:12:06;3.45;;;1.60;;
23496;SDS011;11925;48.122;11.560;2022-11-20T00:14:35;3.10;;;1.60;;
23496;SDS011;11925;48.122;11.560;2022-11-20T00:17:03;3.70;;;1.90;;
23496;SDS011;11925;48.122;11.560;2022-11-20T00:19:32;2.90;;;1.60;;
23496;SDS011;11925;48.122;11.560;2022-11-20T00:22:01;2.78;;;1.67;;
23496;SDS011;11925;48.122;11.560;2022-11-20T00:24:29;2.63;;;1.73;;
23496;SDS011;11925;48.122;11.560;2022-11-20T00:26:59;2.47;;;1.60;;
23496;SDS011;11925;48.122;11.560;2022-11-20T00:29:28;2.17;;;1.52;;
23496;SDS011;11925;48.122;11.560;2022-11-20T00:31:56;3.55;;;1.92;;
23496;SDS011;11925;48.122;11.560;2022-11-20T00:34:25;4.38;;;1.80;;
23496;SDS011;11925;48.122;11.560;2022-11-20T00:36:54;2.92;;;1.60;;
23496;SDS011;11925;48.122;11.560;2022-11-20T00:39:22;3.83;;;1.80;;
23496;SDS011;11925;48.122;11.560;2022-11-20T00:41:51;4.18;;;2.10;;
23496;SDS011;11925;48.122;11.560;2022-11-20T00:44:21;2.40;;;1.83;;
23496;SDS011;11925;48.122;11.560;2022-11-20T00:46:49;3.25;;;1.80;;
23496;SDS011;11925;48.122;11.560;2022-11-20T00:49:18;4.50;;;1.90;;
23496;SDS011;11925;48.122;11.560;2022-11-20T00:51:47;2.58;;;1.15;;
23496;SDS011;11925;48.122;11.560;2022-11-20T00:54:15;3.25;;;1.52;;
23496;SDS011;11925;48.122;11.560;2022-11-20T00:56:44;3.35;;;1.45;;
23496;SDS011;11925;48.122;11.560;2022-11-20T00:59:13;2.25;;;1.67;;
23496;SDS011;11925;48.122;11.560;2022-11-20T01:01:43;2.33;;;1.60;;
23496;SDS011;11925;48.122;11.560;2022-11-20T01:04:11;2.45;;;1.40;;
23496;SDS011;11925;48.122;11.560;2022-11-20T01:06:40;4.28;;;1.60;;
23496;SDS011;11925;48.122;11.560;2022-11-20T01:09:09;2.80;;;1.88;;
23496;SDS011;11925;48.122;11.560;2022-11-20T01:11:39;2.95;;;1.58;;
23496;SDS011;11925;48.122;11.560;2022-11-20T01:14:10;2.92;;;1.85;;
23496;SDS011;11925;48.122;11.560;2022-11-20T01:16:39;2.45;;;1.33;;
23496;SDS011;11925;48.122;11.560;2022-11-20T01:19:10;4.30;;;2.10;;
23496;SDS011;11925;48.122;11.560;2022-11-20T01:21:44;3.17;;;1.60;;
23496;SDS011;11925;48.122;11.560;2022-11-20T01:24:14;2.08;;;1.42;;
23496;SDS011;11925;48.122;11.560;2022-11-20T01:26:43;3.03;;;1.90;;
23496;SDS011;11925;48.122;11.560;2022-11-20T01:29:12;1.88;;;1.58;;
23496;SDS011;11925;48.122;11.560;2022-11-20T01:31:41;2.03;;;1.60;;
23496;SDS011;11925;48.122;11.560;2022-11-20T01:34:12;2.10;;;1.55;;
23496;SDS011;11925;48.122;11.560;2022-11-20T01:36:41;2.15;;;1.45;;
23496;SDS011;11925;48.122;11.560;2022-11-20T01:39:11;3.30;;;1.70;;
23496;SDS011;11925;48.122;11.560;2022-11-20T01:41:40;1.70;;;1.17;;
23496;SDS011;11925;48.122;11.560;2022-11-20T01:47:18;2.78;;;1.67;;
23496;SDS011;11925;48.122;11.560;2022-11-20T01:49:50;2.72;;;1.45;;
23496;SDS011;11925;48.122;11.560;2022-11-20T01:52:21;3.92;;;1.60;;
23496;SDS011;11925;48.122;11.560;2022-11-20T01:54:52;3.03;;;1.90;;
23496;SDS011;11925;48.122;11.560;2022-11-20T01:57:22;2.05;;;1.42;;
23496;SDS011;11925;48.122;11.560;2022-11-20T01:59:53;3.67;;;1.70;;
23496;SDS011;11925;48.122;11.560;2022-11-20T02:02:22;3.42;;;1.40;;
23496;SDS011;11925;48.122;11.560;2022-11-20T02:04:52;2.40;;;1.70;;
23496;SDS011;11925;48.122;11.560;2022-11-20T02:07:24;2.53;;;1.40;;
23496;SDS011;11925;48.122;11.560;2022-11-20T02:09:52;3.78;;;1.60;;
23496;SDS011;11925;48.122;11.560;2022-11-20T02:12:24;2.03;;;1.45;;
23496;SDS011;11925;48.122;11.560;2022-11-20T02:15:10;3.17;;;1.60;;
23496;SDS011;11925;48.122;11.560;2022-11-20T02:17:39;2.88;;;1.40;;
23496;SDS011;11925;48.122;11.560;2022-11-20T02:20:10;3.70;;;1.63;;
23496;SDS011;11925;48.122;11.560;2022-11-20T02:22:41;4.03;;;1.70;;
23496;SDS011;11925;48.122;11.560;2022-11-20T02:25:16;2.63;;;1.45;;
23496;SDS011;11925;48.122;11.560;2022-11-20T02:27:45;2.70;;;1.40;;
23496;SDS011;11925;48.122;11.560;2022-11-20T02:30:15;2.97;;;1.55;;
23496;SDS011;11925;48.122;11.560;2022-11-20T02:32:44;2.13;;;1.60;;
23496;SDS011;11925;48.122;11.560;2022-11-20T02:37:56;3.95;;;1.50;;
23496;SDS011;11925;48.122;11.560;2022-11-20T02:40:27;3.28;;;1.77;;
23496;SDS011;11925;48.122;11.560;2022-11-20T02:42:56;2.10;;;1.30;;
23496;SDS011;11925;48.122;11.560;2022-11-20T02:45:25;3.25;;;1.40;;
23496;SDS011;11925;48.122;11.560;2022-11-20T02:47:53;2.60;;;1.45;;
23496;SDS011;11925;48.122;11.560;2022-11-20T02:50:22;2.70;;;1.65;;
23496;SDS011;11925;48.122;11.560;2022-11-20T02:52:50;2.67;;;1.70;;
23496;SDS011;11925;48.122;11.560;2022-11-20T02:55:19;3.50;;;1.70;;
23496;SDS011;11925;48.122;11.560;2022-11-20T02:57:49;2.42;;;1.55;;
23496;SDS011;11925;48.122;11.560;2022-11-20T03:00:18;3.30;;;1.83;;
23496;SDS011;11925;48.122;11.560;2022-11-20T03:02:46;2.92;;;1.70;;
23496;SDS011;11925;48.122;11.560;2022-11-20T03:05:15;3.08;;;1.92;;
23496;SDS011;11925;48.122;11.560;2022-11-20T03:07:44;2.45;;;1.80;;
23496;SDS011;11925;48.122;11.560;2022-11-20T03:10:12;3.78;;;2.03;;
23496;SDS011;11925;48.122;11.560;2022-11-20T03:12:41;2.70;;;1.50;;
23496;SDS011;11925;48.122;11.560;2022-11-20T03:15:11;2.78;;;1.70;;
23496;SDS011;11925;48.122;11.560;2022-11-20T03:17:39;3.70;;;2.10;;
23496;SDS011;11925;48.122;11.560;2022-11-20T03:20:08;2.78;;;1.83;;
23496;SDS011;11925;48.122;11.560;2022-11-20T03:22:37;2.47;;;1.73;;
23496;SDS011;11925;48.122;11.560;2022-11-20T03:25:06;2.83;;;1.80;;
23496;SDS011;11925;48.122;11.560;2022-11-20T03:27:35;3.97;;;2.00;;
23496;SDS011;11925;48.122;11.560;2022-11-20T03:30:04;3.25;;;1.90;;
23496;SDS011;11925;48.122;11.560;2022-11-20T03:32:34;2.78;;;1.80;;
23496;SDS011;11925;48.122;11.560;2022-11-20T03:35:03;2.85;;;1.55;;
23496;SDS011;11925;48.122;11.560;2022-11-20T03:37:32;2.70;;;2.00;;
23496;SDS011;11925;48.122;11.560;2022-11-20T03:40:00;4.10;;;1.77;;
23496;SDS011;11925;48.122;11.560;2022-11-20T03:42:29;2.92;;;1.88;;
23496;SDS011;11925;48.122;11.560;2022-11-20T03:45:13;3.55;;;1.88;;
23496;SDS011;11925;48.122;11.560;2022-11-20T03:47:43;3.58;;;2.13;;
23496;SDS011;11925;48.122;11.560;2022-11-20T03:50:13;2.60;;;1.70;;
23496;SDS011;11925;48.122;11.560;2022-11-20T03:52:41;3.10;;;1.90;;
23496;SDS011;11925;48.122;11.560;2022-11-20T03:55:10;3.63;;;2.40;;
23496;SDS011;11925;48.122;11.560;2022-11-20T03:57:38;2.00;;;1.60;;
23496;SDS011;11925;48.122;11.560;2022-11-20T04:00:07;3.15;;;2.10;;
23496;SDS011;11925;48.122;11.560;2022-11-20T04:02:36;4.15;;;2.20;;
23496;SDS011;11925;48.122;11.560;2022-11-20T04:05:06;3.40;;;2.00;;
23496;SDS011;11925;48.122;11.560;2022-11-20T04:07:35;3.22;;;1.85;;
23496;SDS011;11925;48.122;11.560;2022-11-20T04:10:04;3.00;;;1.88;;
23496;SDS011;11925;48.122;11.560;2022-11-20T04:12:33;3.83;;;2.10;;
23496;SDS011;11925;48.122;11.560;2022-11-20T04:15:02;3.17;;;1.92;;
23496;SDS011;11925;48.122;11.560;2022-11-20T04:17:30;3.10;;;1.95;;
23496;SDS011;11925;48.122;11.560;2022-11-20T04:19:59;3.55;;;1.63;;
23496;SDS011;11925;48.122;11.560;2022-11-20T04:22:29;3.47;;;1.85;;
23496;SDS011;11925;48.122;11.560;2022-11-20T04:24:58;2.95;;;2.03;;
23496;SDS011;11925;48.122;11.560;2022-11-20T04:27:26;2.83;;;1.88;;
23496;SDS011;11925;48.122;11.560;2022-11-20T04:29:55;3.88;;;1.85;;
23496;SDS011;11925;48.122;11.560;2022-11-20T04:32:23;2.40;;;1.50;;
23496;SDS011;11925;48.122;11.560;2022-11-20T04:34:52;2.83;;;1.77;;
23496;SDS011;11925;48.122;11.560;2022-11-20T04:37:20;2.33;;;1.80;;
23496;SDS011;11925;48.122;11.560;2022-11-20T04:39:50;2.72;;;1.67;;
23496;SDS011;11925;48.122;11.560;2022-11-20T04:42:19;3.65;;;2.15;;
23496;SDS011;11925;48.122;11.560;2022-11-20T04:44:57;2.50;;;1.55;;
23496;SDS011;11925;48.122;11.560;2022-11-20T04:47:25;2.78;;;1.85;;
23496;SDS011;11925;48.122;11.560;2022-11-20T04:49:54;2.63;;;1.88;;
23496;SDS011;11925;48.122;11.560;2022-11-20T04:52:23;2.97;;;1.67;;
23496;SDS011;11925;48.122;11.560;2022-11-20T04:54:53;3.10;;;2.15;;
23496;SDS011;11925;48.122;11.560;2022-11-20T04:57:21;2.95;;;2.15;;
23496;SDS011;11925;48.122;11.560;2022-11-20T04:59:50;3.15;;;1.95;;
23496;SDS011;11925;48.122;11.560;2022-11-20T05:02:19;4.43;;;2.33;;
23496;SDS011;11925;48.122;11.560;2022-11-20T05:04:48;3.50;;;2.20;;
23496;SDS011;11925;48.122;11.560;2022-11-20T05:07:17;2.65;;;1.90;;
23496;SDS011;11925;48.122;11.560;2022-11-20T05:09:45;3.13;;;1.90;;
23496;SDS011;11925;48.122;11.560;2022-11-20T05:12:15;2.75;;;1.80;;
23496;SDS011;11925;48.122;11.560;2022-11-20T05:14:44;2.83;;;1.90;;
23496;SDS011;11925;48.122;11.560;2022-11-20T05:17:13;6.15;;;2.10;;
23496;SDS011;11925;48.122;11.560;2022-11-20T05:19:41;3.47;;;2.13;;
23496;SDS011;11925;48.122;11.560;2022-11-20T05:22:12;3.33;;;2.00;;
23496;SDS011;11925;48.122;11.560;2022-11-20T05:24:41;3.25;;;2.30;;
23496;SDS011;11925;48.122;11.560;2022-11-20T05:27:09;3.53;;;2.03;;
23496;SDS011;11925;48.122;11.560;2022-11-20T05:29:39;4.20;;;2.00;;
23496;SDS011;11925;48.122;11.560;2022-11-20T05:32:08;3.50;;;2.20;;
23496;SDS011;11925;48.122;11.560;2022-11-20T05:34:37;4.13;;;2.70;;
23496;SDS011;11925;48.122;11.560;2022-11-20T05:37:06;4.13;;;1.73;;
23496;SDS011;11925;48.122;11.560;2022-11-20T05:39:34;3.95;;;2.38;;
23496;SDS011;11925;48.122;11.560;2022-11-20T05:42:03;2.25;;;1.80;;
23496;SDS011;11925;48.122;11.560;2022-11-20T05:44:51;3.40;;;1.95;;
23496;SDS011;11925;48.122;11.560;2022-11-20T05:47:19;4.70;;;1.98;;
23496;SDS011;11925;48.122;11.560;2022-11-20T05:49:48;3.15;;;1.73;;
23496;SDS011;11925;48.122;11.560;2022-11-20T05:52:16;3.63;;;2.40;;
23496;SDS011;11925;48.122;11.560;2022-11-20T05:54:45;2.92;;;2.10;;
23496;SDS011;11925;48.122;11.560;2022-11-20T05:57:14;2.53;;;2.08;;
23496;SDS011;11925;48.122;11.560;2022-11-20T05:59:42;5.38;;;2.30;;
23496;SDS011;11925;48.122;11.560;2022-11-20T06:02:12;2.78;;;2.10;;
23496;SDS011;11925;48.122;11.560;2022-11-20T06:04:41;2.63;;;1.77;;
23496;SDS011;11925;48.122;11.560;2022-11-20T06:07:10;2.90;;;1.98;;
23496;SDS011;11925;48.122;11.560;2022-11-20T06:12:30;2.85;;;1.85;;
23496;SDS011;11925;48.122;11.560;2022-11-20T06:14:59;3.13;;;2.23;;
23496;SDS011;11925;48.122;11.560;2022-11-20T06:17:29;3.08;;;2.15;;
23496;SDS011;11925;48.122;11.560;2022-11-20T06:19:57;2.13;;;1.70;;
23496;SDS011;11925;48.122;11.560;2022-11-20T06:22:26;3.33;;;1.60;;
23496;SDS011;11925;48.122;11.560;2022-11-20T06:24:55;2.53;;;1.70;;
23496;SDS011;11925;48.122;11.560;2022-11-20T06:27:23;2.97;;;1.95;;
23496;SDS011;11925;48.122;11.560;2022-11-20T06:29:52;4.10;;;1.75;;
23496;SDS011;11925;48.122;11.560;2022-11-20T06:32:21;2.00;;;1.60;;
23496;SDS011;11925;48.122;11.560;2022-11-20T06:34:51;4.07;;;1.88;;
23496;SDS011;11925;48.122;11.560;2022-11-20T06:37:19;2.67;;;1.70;;
23496;SDS011;11925;48.122;11.560;2022-11-20T06:39:48;2.33;;;1.40;;
23496;SDS011;11925;48.122;11.560;2022-11-20T06:42:16;2.42;;;1.70;;
23496;SDS011;11925;48.122;11.560;2022-11-20T06:44:45;2.97;;;1.40;;
23496;SDS011;11925;48.122;11.560;2022-11-20T06:47:14;4.45;;;1.63;;
23496;SDS011;11925;48.122;11.560;2022-11-20T06:49:42;2.20;;;1.33;;
23496;SDS011;11925;48.122;11.560;2022-11-20T06:52:12;2.00;;;1.40;;
23496;SDS011;11925;48.122;11.560;2022-11-20T06:54:41;3.13;;;1.80;;
23496;SDS011;11925;48.122;11.560;2022-11-20T06:57:09;2.55;;;1.50;;
23496;SDS011;11925;48.122;11.560;2022-11-20T06:59:38;4.00;;;1.30;;
23496;SDS011;11925;48.122;11.560;2022-11-20T07:02:08;1.83;;;1.25;;
23496;SDS011;11925;48.122;11.560;2022-11-20T07:04:38;2.55;;;1.00;;
23496;SDS011;11925;48.122;11.560;2022-11-20T07:07:08;2.97;;;1.25;;
23496;SDS011;11925;48.122;11.560;2022-11-20T07:09:38;1.88;;;1.15;;
23496;SDS011;11925;48.122;11.560;2022-11-20T07:12:07;2.65;;;1.25;;
23496;SDS011;11925;48.122;11.560;2022-11-20T07:14:36;2.55;;;1.17;;
23496;SDS011;11925;48.122;11.560;2022-11-20T07:17:04;2.63;;;1.30;;
23496;SDS011;11925;48.122;11.560;2022-11-20T07:19:33;4.13;;;1.30;;
23496;SDS011;11925;48.122;11.560;2022-11-20T07:22:02;1.80;;;1.42;;
23496;SDS011;11925;48.122;11.560;2022-11-20T07:24:30;1.75;;;1.38;;
23496;SDS011;11925;48.122;11.560;2022-11-20T07:27:00;1.95;;;1.08;;
23496;SDS011;11925;48.122;11.560;2022-11-20T07:29:30;2.75;;;1.60;;
23496;SDS011;11925;48.122;11.560;2022-11-20T07:31:59;3.90;;;1.85;;
23496;SDS011;11925;48.122;11.560;2022-11-20T07:34:27;2.38;;;1.50;;
23496;SDS011;11925;48.122;11.560;2022-11-20T07:36:56;3.22;;;1.90;;
23496;SDS011;11925;48.122;11.560;2022-11-20T07:39:25;3.90;;;2.40;;
23496;SDS011;11925;48.122;11.560;2022-11-20T07:41:53;2.78;;;1.80;;
23496;SDS011;11925;48.122;11.560;2022-11-20T07:44:23;2.40;;;1.73;;
23496;SDS011;11925;48.122;11.560;2022-11-20T07:46:52;2.97;;;1.70;;
23496;SDS011;11925;48.122;11.560;2022-11-20T07:49:20;2.92;;;1.75;;
23496;SDS011;11925;48.122;11.560;2022-11-20T07:51:49;2.55;;;1.58;;
23496;SDS011;11925;48.122;11.560;2022-11-20T07:54:19;2.17;;;1.60;;
23496;SDS011;11925;48.122;11.560;2022-11-20T07:56:48;2.38;;;1.73;;
23496;SDS011;11925;48.122;11.560;2022-11-20T07:59:17;2.70;;;1.70;;
23496;SDS011;11925;48.122;11.560;2022-11-20T08:01:47;3.35;;;1.58;;
23496;SDS011;11925;48.122;11.560;2022-11-20T08:04:16;2.50;;;1.48;;
23496;SDS011;11925;48.122;11.560;2022-11-20T08:06:45;2.88;;;1.60;;
23496;SDS011;11925;48.122;11.560;2022-11-20T08:09:13;2.03;;;1.48;;
23496;SDS011;11925;48.122;11.560;2022-11-20T08:11:42;2.85;;;1.77;;
23496;SDS011;11925;48.122;11.560;2022-11-20T08:14:28;2.60;;;1.83;;
23496;SDS011;11925;48.122;11.560;2022-11-20T08:16:58;2.72;;;1.48;;
23496;SDS011;11925;48.122;11.560;2022-11-20T08:19:27;2.75;;;1.60;;
23496;SDS011;11925;48.122;11.560;2022-11-20T08:21:55;2.28;;;1.55;;
23496;SDS011;11925;48.122;11.560;2022-11-20T08:24:24;2.85;;;1.60;;
23496;SDS011;11925;48.122;11.560;2022-11-20T08:26:53;2.72;;;1.42;;
23496;SDS011;11925;48.122;11.560;2022-11-20T08:29:21;2.55;;;1.30;;
23496;SDS011;11925;48.122;11.560;2022-11-20T08:31:50;2.13;;;1.70;;
23496;SDS011;11925;48.122;11.560;2022-11-20T08:34:20;4.47;;;1.75;;
23496;SDS011;11925;48.122;11.560;2022-11-20T08:36:49;2.55;;;1.50;;
23496;SDS011;11925;48.122;11.560;2022-11-20T08:39:17;3.30;;;1.63;;
23496;SDS011;11925;48.122;11.560;2022-11-20T08:41:46;3.17;;;1.80;;
23496;SDS011;11925;48.122;11.560;2022-11-20T08:44:15;3.88;;;1.55;;
23496;SDS011;11925;48.122;11.560;2022-11-20T08:46:44;2.72;;;1.60;;
23496;SDS011;11925;48.122;11.560;2022-11-20T08:49:13;2.50;;;1.50;;
23496;SDS011;11925;48.122;11.560;2022-11-20T08:51:43;3.65;;;1.63;;
23496;SDS011;11925;48.122;11.560;2022-11-20T08:56:45;3.10;;;1.50;;
23496;SDS011;11925;48.122;11.560;2022-11-20T08:59:14;3.85;;;1.73;;
23496;SDS011;11925;48.122;11.560;2022-11-20T09:02:03;2.50;;;1.50;;
23496;SDS011;11925;48.122;11.560;2022-11-20T09:04:31;2.92;;;1.45;;
23496;SDS011;11925;48.122;11.560;2022-11-20T09:07:01;3.00;;;1.50;;
23496;SDS011;11925;48.122;11.560;2022-11-20T09:09:30;1.75;;;1.10;;
23496;SDS011;11925;48.122;11.560;2022-11-20T09:11:59;1.60;;;1.30;;
23496;SDS011;11925;48.122;11.560;2022-11-20T09:14:27;2.38;;;1.23;;
23496;SDS011;11925;48.122;11.560;2022-11-20T09:16:56;1.60;;;1.10;;
23496;SDS011;11925;48.122;11.560;2022-11-20T09:19:25;1.58;;;1.20;;
23496;SDS011;11925;48.122;11.560;2022-11-20T09:22:03;1.90;;;1.25;;
23496;SDS011;11925;48.122;11.560;2022-11-20T09:24:32;2.13;;;1.40;;
23496;SDS011;11925;48.122;11.560;2022-11-20T09:27:03;2.28;;;1.15;;
23496;SDS011;11925;48.122;11.560;2022-11-20T09:29:32;2.95;;;1.20;;
23496;SDS011;11925;48.122;11.560;2022-11-20T09:32:01;2.25;;;1.13;;
23496;SDS011;11925;48.122;11.560;2022-11-20T09:34:30;2.53;;;1.17;;
23496;SDS011;11925;48.122;11.560;2022-11-20T09:36:59;1.73;;;1.10;;
23496;SDS011;11925;48.122;11.560;2022-11-20T09:39:34;2.08;;;1.00;;
23496;SDS011;11925;48.122;11.560;2022-11-20T09:42:12;2.28;;;1.20;;
23496;SDS011;11925;48.122;11.560;2022-11-20T09:44:48;1.88;;;1.00;;
23496;SDS011;11925;48.122;11.560;2022-11-20T09:47:22;1.73;;;0.80;;
23496;SDS011;11925;48.122;11.560;2022-11-20T09:49:57;1.30;;;0.90;;
23496;SDS011;11925;48.122;11.560;2022-11-20T09:52:30;2.05;;;1.00;;
23496;SDS011;11925;48.122;11.560;2022-11-20T09:55:03;2.42;;;0.90;;
23496;SDS011;11925;48.122;11.560;2022-11-20T09:57:34;2.17;;;1.00;;
23496;SDS011;11925;48.122;11.560;2022-11-20T10:00:05;2.55;;;1.08;;
23496;SDS011;11925;48.122;11.560;2022-11-20T10:02:42;2.20;;;0.90;;
23496;SDS011;11925;48.122;11.560;2022-11-20T10:05:12;1.33;;;0.82;;
23496;SDS011;11925;48.122;11.560;2022-11-20T10:07:44;2.03;;;0.90;;
23496;SDS011;11925;48.122;11.560;2022-11-20T10:10:19;1.60;;;1.02;;
23496;SDS011;11925;48.122;11.560;2022-11-20T10:12:53;2.22;;;1.23;;
23496;SDS011;11925;48.122;11.560;2022-11-20T10:15:28;1.92;;;0.90;;
23496;SDS011;11925;48.122;11.560;2022-11-20T10:18:03;1.58;;;1.00;;
23496;SDS011;11925;48.122;11.560;2022-11-20T10:20:39;1.98;;;0.93;;
23496;SDS011;11925;48.122;11.560;2022-11-20T10:26:04;1.60;;;0.80;;
23496;SDS011;11925;48.122;11.560;2022-11-20T10:28:39;1.40;;;0.95;;
23496;SDS011;11925;48.122;11.560;2022-11-20T10:31:24;1.40;;;0.80;;
23496;SDS011;11925;48.122;11.560;2022-11-20T10:33:54;1.55;;;0.80;;
23496;SDS011;11925;48.122;11.560;2022-11-20T10:36:38;2.55;;;1.00;;
23496;SDS011;11925;48.122;11.560;2022-11-20T10:39:12;1.45;;;0.90;;
23496;SDS011;11925;48.122;11.560;2022-11-20T10:41:44;3.30;;;1.40;;
23496;SDS011;11925;48.122;11.560;2022-11-20T10:44:15;2.92;;;1.00;;
23496;SDS011;11925;48.122;11.560;2022-11-20T10:47:05;2.55;;;1.00;;
23496;SDS011;11925;48.122;11.560;2022-11-20T10:49:38;2.25;;;1.15;;
23496;SDS011;11925;48.122;11.560;2022-11-20T10:52:09;1.58;;;0.90;;
23496;SDS011;11925;48.122;11.560;2022-11-20T10:54:43;1.90;;;0.93;;
23496;SDS011;11925;48.122;11.560;2022-11-20T10:57:17;1.88;;;1.05;;
23496;SDS011;11925;48.122;11.560;2022-11-20T10:59:50;2.03;;;1.30;;
23496;SDS011;11925;48.122;11.560;2022-11-20T11:02:23;1.23;;;1.00;;
23496;SDS011;11925;48.122;11.560;2022-11-20T11:04:52;3.30;;;1.27;;
23496;SDS011;11925;48.122;11.560;2022-11-20T11:07:21;3.17;;;1.27;;
23496;SDS011;11925;48.122;11.560;2022-11-20T11:09:52;1.73;;;1.13;;
23496;SDS011;11925;48.122;11.560;2022-11-20T11:12:23;2.50;;;1.23;;
23496;SDS011;11925;48.122;11.560;2022-11-20T11:17:25;2.15;;;1.05;;
23496;SDS011;11925;48.122;11.560;2022-11-20T11:20:01;2.47;;;1.23;;
23496;SDS011;11925;48.122;11.560;2022-11-20T11:22:30;3.10;;;1.10;;
23496;SDS011;11925;48.122;11.560;2022-11-20T11:24:59;3.00;;;0.88;;
23496;SDS011;11925;48.122;11.560;2022-11-20T11:27:29;2.85;;;1.00;;
23496;SDS011;11925;48.122;11.560;2022-11-20T11:30:03;1.40;;;0.80;;
23496;SDS011;11925;48.122;11.560;2022-11-20T11:32:39;1.05;;;0.70;;
23496;SDS011;11925;48.122;11.560;2022-11-20T11:35:18;2.15;;;0.98;;
23496;SDS011;11925;48.122;11.560;2022-11-20T11:37:48;4.68;;;2.47;;
23496;SDS011;11925;48.122;11.560;2022-11-20T11:40:17;4.28;;;1.85;;
23496;SDS011;11925;48.122;11.560;2022-11-20T11:42:54;3.53;;;1.50;;
23496;SDS011;11925;48.122;11.560;2022-11-20T11:45:23;3.00;;;1.58;;
23496;SDS011;11925;48.122;11.560;2022-11-20T11:47:51;2.90;;;1.52;;
23496;SDS011;11925;48.122;11.560;2022-11-20T11:50:21;3.63;;;1.48;;
23496;SDS011;11925;48.122;11.560;2022-11-20T11:52:58;2.17;;;1.02;;
23496;SDS011;11925;48.122;11.560;2022-11-20T11:55:30;2.67;;;1.20;;
23496;SDS011;11925;48.122;11.560;2022-11-20T11:58:06;2.42;;;1.27;;
23496;SDS011;11925;48.122;11.560;2022-11-20T12:00:35;2.63;;;0.90;;
23496;SDS011;11925;48.122;11.560;2022-11-20T12:03:06;1.27;;;0.98;;
23496;SDS011;11925;48.122;11.560;2022-11-20T12:05:39;3.08;;;1.20;;
23496;SDS011;11925;48.122;11.560;2022-11-20T12:08:12;2.58;;;1.00;;
23496;SDS011;11925;48.122;11.560;2022-11-20T12:10:45;3.80;;;1.48;;
23496;SDS011;11925;48.122;11.560;2022-11-20T12:13:17;1.73;;;1.10;;
23496;SDS011;11925;48.122;11.560;2022-11-20T12:15:49;11.32;;;5.72;;
23496;SDS011;11925;48.122;11.560;2022-11-20T12:18:18;7.18;;;4.03;;
23496;SDS011;11925;48.122;11.560;2022-11-20T12:20:49;7.20;;;3.33;;
23496;SDS011;11925;48.122;11.560;2022-11-20T12:23:20;6.63;;;3.05;;
23496;SDS011;11925;48.122;11.560;2022-11-20T12:25:54;4.95;;;1.95;;
23496;SDS011;11925;48.122;11.560;2022-11-20T12:28:32;2.65;;;1.60;;
23496;SDS011;11925;48.122;11.560;2022-11-20T12:31:09;2.83;;;1.30;;
23496;SDS011;11925;48.122;11.560;2022-11-20T12:33:49;2.33;;;1.27;;
23496;SDS011;11925;48.122;11.560;2022-11-20T12:36:25;2.72;;;1.40;;
23496;SDS011;11925;48.122;11.560;2022-11-20T12:41:43;2.13;;;1.27;;
23496;SDS011;11925;48.122;11.560;2022-11-20T12:44:39;2.58;;;1.00;;
23496;SDS011;11925;48.122;11.560;2022-11-20T12:47:28;1.80;;;1.08;;
23496;SDS011;11925;48.122;11.560;2022-11-20T12:50:02;2.38;;;1.40;;
23496;SDS011;11925;48.122;11.560;2022-11-20T12:52:41;2.17;;;1.17;;
23496;SDS011;11925;48.122;11.560;2022-11-20T12:55:16;2.40;;;1.00;;
23496;SDS011;11925;48.122;11.560;2022-11-20T12:57:50;1.75;;;1.00;;
23496;SDS011;11925;48.122;11.560;2022-11-20T13:00:20;2.28;;;1.15;;
23496;SDS011;11925;48.122;11.560;2022-11-20T13:03:00;2.40;;;0.93;;
23496;SDS011;11925;48.122;11.560;2022-11-20T13:05:37;1.73;;;0.90;;
23496;SDS011;11925;48.122;11.560;2022-11-20T13:08:11;1.52;;;0.90;;
23496;SDS011;11925;48.122;11.560;2022-11-20T13:10:43;1.48;;;1.00;;
23496;SDS011;11925;48.122;11.560;2022-11-20T13:15:47;1.73;;;0.90;;
23496;SDS011;11925;48.122;11.560;2022-11-20T13:18:17;1.30;;;0.90;;
23496;SDS011;11925;48.122;11.560;2022-11-20T13:20:46;1.73;;;1.00;;
23496;SDS011;11925;48.122;11.560;2022-11-20T13:23:23;2.65;;;0.98;;
23496;SDS011;11925;48.122;11.560;2022-11-20T13:26:02;1.42;;;1.00;;
23496;SDS011;11925;48.122;11.560;2022-11-20T13:28:31;2.28;;;1.13;;
23496;SDS011;11925;48.122;11.560;2022-11-20T13:31:01;2.78;;;1.08;;
23496;SDS011;11925;48.122;11.560;2022-11-20T13:33:30;2.10;;;1.48;;
23496;SDS011;11925;48.122;11.560;2022-11-20T13:36:00;3.05;;;1.15;;
23496;SDS011;11925;48.122;11.560;2022-11-20T13:38:39;2.35;;;1.20;;
23496;SDS011;11925;48.122;11.560;2022-11-20T13:41:09;1.13;;;0.98;;
23496;SDS011;11925;48.122;11.560;2022-11-20T13:43:51;1.98;;;1.33;;
23496;SDS011;11925;48.122;11.560;2022-11-20T13:46:22;1.70;;;1.02;;
23496;SDS011;11925;48.122;11.560;2022-11-20T13:48:51;2.70;;;1.23;;
23496;SDS011;11925;48.122;11.560;2022-11-20T13:51:27;1.65;;;1.02;;
23496;SDS011;11925;48.122;11.560;2022-11-20T13:54:05;2.38;;;1.20;;
23496;SDS011;11925;48.122;11.560;2022-11-20T13:56:39;3.95;;;1.30;;
23496;SDS011;11925;48.122;11.560;2022-11-20T13:59:13;2.20;;;1.40;;
23496;SDS011;11925;48.122;11.560;2022-11-20T14:01:49;2.53;;;1.10;;
23496;SDS011;11925;48.122;11.560;2022-11-20T14:04:19;2.25;;;1.45;;
23496;SDS011;11925;48.122;11.560;2022-11-20T14:06:50;2.20;;;1.35;;
23496;SDS011;11925;48.122;11.560;2022-11-20T14:09:26;3.15;;;1.38;;
23496;SDS011;11925;48.122;11.560;2022-11-20T14:11:55;3.63;;;1.55;;
23496;SDS011;11925;48.122;11.560;2022-11-20T14:14:24;3.65;;;1.45;;
23496;SDS011;11925;48.122;11.560;2022-11-20T14:17:04;3.42;;;1.25;;
23496;SDS011;11925;48.122;11.560;2022-11-20T14:19:33;2.63;;;1.40;;
23496;SDS011;11925;48.122;11.560;2022-11-20T14:22:07;2.78;;;1.67;;
23496;SDS011;11925;48.122;11.560;2022-11-20T14:24:36;1.70;;;1.10;;
23496;SDS011;11925;48.122;11.560;2022-11-20T14:27:09;1.58;;;1.05;;
23496;SDS011;11925;48.122;11.560;2022-11-20T14:29:40;2.03;;;1.30;;
23496;SDS011;11925;48.122;11.560;2022-11-20T14:32:10;2.13;;;1.20;;
23496;SDS011;11925;48.122;11.560;2022-11-20T14:34:40;2.00;;;1.30;;
23496;SDS011;11925;48.122;11.560;2022-11-20T14:37:11;2.80;;;1.40;;
23496;SDS011;11925;48.122;11.560;2022-11-20T14:39:47;2.70;;;1.30;;
23496;SDS011;11925;48.122;11.560;2022-11-20T14:42:17;2.35;;;1.40;;
23496;SDS011;11925;48.122;11.560;2022-11-20T14:44:46;3.95;;;1.70;;
23496;SDS011;11925;48.122;11.560;2022-11-20T14:47:19;1.83;;;1.38;;
23496;SDS011;11925;48.122;11.560;2022-11-20T14:49:48;2.78;;;1.50;;
23496;SDS011;11925;48.122;11.560;2022-11-20T14:52:19;1.55;;;0.90;;
23496;SDS011;11925;48.122;11.560;2022-11-20T14:54:48;2.58;;;1.15;;
23496;SDS011;11925;48.122;11.560;2022-11-20T14:57:21;1.60;;;0.90;;
23496;SDS011;11925;48.122;11.560;2022-11-20T14:59:50;1.27;;;0.95;;
23496;SDS011;11925;48.122;11.560;2022-11-20T15:02:20;1.80;;;0.85;;
23496;SDS011;11925;48.122;11.560;2022-11-20T15:04:49;1.95;;;0.80;;
23496;SDS011;11925;48.122;11.560;2022-11-20T15:07:24;1.88;;;0.60;;
23496;SDS011;11925;48.122;11.560;2022-11-20T15:10:01;1.60;;;0.68;;
23496;SDS011;11925;48.122;11.560;2022-11-20T15:12:30;1.90;;;0.68;;
23496;SDS011;11925;48.122;11.560;2022-11-20T15:14:59;2.05;;;0.80;;
23496;SDS011;11925;48.122;11.560;2022-11-20T15:17:30;1.67;;;1.00;;